sensor_id;sensor_type;location;lat;lon;timestamp;P1;durP1;ratioP1;P2;durP2;ratioP2
23260;SDS011;11799;47.740;-3.390;2024-01-06T00:00:29;9.00;;;3.72;;
23260;SDS011;11799;47.740;-3.390;2024-01-06T00:02:55;8.05;;;4.38;;
23260;SDS011;11799;47.740;-3.390;2024-01-06T00:05:20;5.53;;;3.67;;
23260;SDS011;11799;47.740;-3.390;2024-01-06T00:07:46;5.10;;;3.38;;
23260;SDS011;11799;47.740;-3.390;2024-01-06T00:10:12;10.18;;;4.05;;
23260;SDS011;11799;47.740;-3.390;2024-01-06T00:12:37;8.75;;;4.38;;
23260;SDS011;11799;47.740;-3.390;2024-01-06T00:15:03;7.15;;;4.40;;
23260;SDS011;11799;47.740;-3.390;2024-01-06T00:17:29;12.82;;;5.35;;
23260;SDS011;11799;47.740;-3.390;2024-01-06T00:19:54;12.93;;;5.28;;
23260;SDS011;11799;47.740;-3.390;2024-01-06T00:22:20;16.38;;;5.15;;
23260;SDS011;11799;47.740;-3.390;2024-01-06T00:24:46;10.65;;;5.10;;
23260;SDS011;11799;47.740;-3.390;2024-01-06T00:27:11;9.82;;;4.00;;
23260;SDS011;11799;47.740;-3.390;2024-01-06T00:29:38;10.82;;;4.50;;
23260;SDS011;11799;47.740;-3.390;2024-01-06T00:32:04;11.90;;;4.03;;
23260;SDS011;11799;47.740;-3.390;2024-01-06T00:34:30;13.07;;;3.78;;
23260;SDS011;11799;47.740;-3.390;2024-01-06T00:36:56;12.30;;;3.42;;
23260;SDS011;11799;47.740;-3.390;2024-01-06T00:39:21;11.48;;;3.65;;
23260;SDS011;11799;47.740;-3.390;2024-01-06T00:41:47;13.00;;;3.40;;
23260;SDS011;11799;47.740;-3.390;2024-01-06T00:44:12;9.27;;;3.10;;
23260;SDS011;11799;47.740;-3.390;2024-01-06T00:46:38;12.23;;;3.40;;
23260;SDS011;11799;47.740;-3.390;2024-01-06T00:49:04;12.55;;;3.28;;
23260;SDS011;11799;47.740;-3.390;2024-01-06T00:51:30;14.73;;;3.28;;
23260;SDS011;11799;47.740;-3.390;2024-01-06T00:53:56;9.20;;;3.22;;
23260;SDS011;11799;47.740;-3.390;2024-01-06T00:56:22;14.88;;;3.05;;
23260;SDS011;11799;47.740;-3.390;2024-01-06T00:58:47;11.55;;;3.10;;
23260;SDS011;11799;47.740;-3.390;2024-01-06T01:01:13;15.70;;;2.83;;
23260;SDS011;11799;47.740;-3.390;2024-01-06T01:03:39;8.75;;;3.00;;
23260;SDS011;11799;47.740;-3.390;2024-01-06T01:06:04;6.72;;;3.03;;
23260;SDS011;11799;47.740;-3.390;2024-01-06T01:08:30;7.55;;;3.10;;
23260;SDS011;11799;47.740;-3.390;2024-01-06T01:10:56;15.02;;;2.88;;
23260;SDS011;11799;47.740;-3.390;2024-01-06T01:13:23;13.18;;;2.85;;
23260;SDS011;11799;47.740;-3.390;2024-01-06T01:15:49;7.45;;;2.90;;
23260;SDS011;11799;47.740;-3.390;2024-01-06T01:18:14;14.52;;;3.60;;
23260;SDS011;11799;47.740;-3.390;2024-01-06T01:20:40;11.18;;;3.50;;
23260;SDS011;11799;47.740;-3.390;2024-01-06T01:23:08;6.57;;;3.25;;
23260;SDS011;11799;47.740;-3.390;2024-01-06T01:25:34;7.95;;;2.80;;
23260;SDS011;11799;47.740;-3.390;2024-01-06T01:27:59;5.22;;;2.80;;
23260;SDS011;11799;47.740;-3.390;2024-01-06T01:30:25;8.95;;;2.50;;
23260;SDS011;11799;47.740;-3.390;2024-01-06T01:32:50;8.60;;;2.30;;
23260;SDS011;11799;47.740;-3.390;2024-01-06T01:35:16;7.30;;;2.55;;
23260;SDS011;11799;47.740;-3.390;2024-01-06T01:37:42;9.65;;;2.35;;
23260;SDS011;11799;47.740;-3.390;2024-01-06T01:40:07;11.32;;;3.03;;
23260;SDS011;11799;47.740;-3.390;2024-01-06T01:42:33;11.05;;;2.10;;
23260;SDS011;11799;47.740;-3.390;2024-01-06T01:44:59;10.48;;;2.40;;
23260;SDS011;11799;47.740;-3.390;2024-01-06T01:47:24;4.53;;;1.95;;
23260;SDS011;11799;47.740;-3.390;2024-01-06T01:49:51;13.57;;;2.00;;
23260;SDS011;11799;47.740;-3.390;2024-01-06T01:52:18;11.48;;;2.13;;
23260;SDS011;11799;47.740;-3.390;2024-01-06T01:54:44;6.93;;;1.92;;
23260;SDS011;11799;47.740;-3.390;2024-01-06T01:57:11;6.72;;;1.90;;
23260;SDS011;11799;47.740;-3.390;2024-01-06T01:59:39;4.40;;;1.83;;
23260;SDS011;11799;47.740;-3.390;2024-01-06T02:02:05;6.93;;;1.88;;
23260;SDS011;11799;47.740;-3.390;2024-01-06T02:04:31;3.60;;;1.63;;
23260;SDS011;11799;47.740;-3.390;2024-01-06T02:06:57;7.95;;;1.63;;
23260;SDS011;11799;47.740;-3.390;2024-01-06T02:09:22;4.25;;;1.67;;
23260;SDS011;11799;47.740;-3.390;2024-01-06T02:11:52;4.75;;;1.75;;
23260;SDS011;11799;47.740;-3.390;2024-01-06T02:14:18;5.68;;;2.15;;
23260;SDS011;11799;47.740;-3.390;2024-01-06T02:16:43;10.30;;;2.53;;
23260;SDS011;11799;47.740;-3.390;2024-01-06T02:19:10;4.45;;;1.73;;
23260;SDS011;11799;47.740;-3.390;2024-01-06T02:21:41;5.78;;;1.85;;
23260;SDS011;11799;47.740;-3.390;2024-01-06T02:24:08;3.38;;;1.67;;
23260;SDS011;11799;47.740;-3.390;2024-01-06T02:26:34;3.13;;;1.77;;
23260;SDS011;11799;47.740;-3.390;2024-01-06T02:29:00;6.90;;;1.75;;
23260;SDS011;11799;47.740;-3.390;2024-01-06T02:31:26;3.05;;;1.60;;
23260;SDS011;11799;47.740;-3.390;2024-01-06T02:33:52;5.75;;;1.80;;
23260;SDS011;11799;47.740;-3.390;2024-01-06T02:36:18;9.07;;;2.05;;
23260;SDS011;11799;47.740;-3.390;2024-01-06T02:38:43;8.45;;;1.73;;
23260;SDS011;11799;47.740;-3.390;2024-01-06T02:41:09;3.80;;;1.70;;
23260;SDS011;11799;47.740;-3.390;2024-01-06T02:43:34;10.50;;;1.80;;
23260;SDS011;11799;47.740;-3.390;2024-01-06T02:46:00;4.50;;;1.60;;
23260;SDS011;11799;47.740;-3.390;2024-01-06T02:48:25;10.93;;;2.05;;
23260;SDS011;11799;47.740;-3.390;2024-01-06T02:50:51;7.15;;;1.90;;
23260;SDS011;11799;47.740;-3.390;2024-01-06T02:53:17;14.82;;;2.00;;
23260;SDS011;11799;47.740;-3.390;2024-01-06T02:55:42;6.35;;;1.90;;
23260;SDS011;11799;47.740;-3.390;2024-01-06T02:58:08;9.52;;;2.22;;
23260;SDS011;11799;47.740;-3.390;2024-01-06T03:00:33;10.90;;;2.33;;
23260;SDS011;11799;47.740;-3.390;2024-01-06T03:02:58;16.02;;;1.85;;
23260;SDS011;11799;47.740;-3.390;2024-01-06T03:05:24;9.02;;;2.08;;
23260;SDS011;11799;47.740;-3.390;2024-01-06T03:07:50;9.27;;;1.83;;
23260;SDS011;11799;47.740;-3.390;2024-01-06T03:10:15;7.15;;;2.38;;
23260;SDS011;11799;47.740;-3.390;2024-01-06T03:12:41;8.35;;;1.48;;
23260;SDS011;11799;47.740;-3.390;2024-01-06T03:15:07;6.65;;;1.67;;
23260;SDS011;11799;47.740;-3.390;2024-01-06T03:17:33;8.15;;;1.50;;
23260;SDS011;11799;47.740;-3.390;2024-01-06T03:19:58;10.00;;;1.75;;
23260;SDS011;11799;47.740;-3.390;2024-01-06T03:22:24;8.55;;;1.70;;
23260;SDS011;11799;47.740;-3.390;2024-01-06T03:24:49;9.13;;;1.60;;
23260;SDS011;11799;47.740;-3.390;2024-01-06T03:27:15;4.50;;;1.52;;
23260;SDS011;11799;47.740;-3.390;2024-01-06T03:29:40;3.28;;;1.20;;
23260;SDS011;11799;47.740;-3.390;2024-01-06T03:32:06;7.93;;;1.50;;
23260;SDS011;11799;47.740;-3.390;2024-01-06T03:34:32;4.05;;;1.23;;
23260;SDS011;11799;47.740;-3.390;2024-01-06T03:36:57;5.95;;;1.55;;
23260;SDS011;11799;47.740;-3.390;2024-01-06T03:39:23;8.70;;;1.75;;
23260;SDS011;11799;47.740;-3.390;2024-01-06T03:41:48;4.25;;;1.67;;
23260;SDS011;11799;47.740;-3.390;2024-01-06T03:44:14;9.75;;;1.85;;
23260;SDS011;11799;47.740;-3.390;2024-01-06T03:46:40;12.65;;;1.90;;
23260;SDS011;11799;47.740;-3.390;2024-01-06T03:49:05;6.25;;;1.55;;
23260;SDS011;11799;47.740;-3.390;2024-01-06T03:51:31;8.25;;;1.67;;
23260;SDS011;11799;47.740;-3.390;2024-01-06T03:53:56;4.60;;;1.52;;
23260;SDS011;11799;47.740;-3.390;2024-01-06T03:56:22;8.43;;;1.55;;
23260;SDS011;11799;47.740;-3.390;2024-01-06T03:58:47;7.20;;;1.80;;
23260;SDS011;11799;47.740;-3.390;2024-01-06T04:01:13;7.88;;;1.90;;
23260;SDS011;11799;47.740;-3.390;2024-01-06T04:03:38;8.65;;;1.95;;
23260;SDS011;11799;47.740;-3.390;2024-01-06T04:06:07;12.38;;;1.80;;
23260;SDS011;11799;47.740;-3.390;2024-01-06T04:08:33;8.52;;;1.63;;
23260;SDS011;11799;47.740;-3.390;2024-01-06T04:10:58;5.28;;;1.70;;
23260;SDS011;11799;47.740;-3.390;2024-01-06T04:13:24;8.38;;;1.65;;
23260;SDS011;11799;47.740;-3.390;2024-01-06T04:15:51;8.20;;;2.03;;
23260;SDS011;11799;47.740;-3.390;2024-01-06T04:18:17;6.57;;;1.80;;
23260;SDS011;11799;47.740;-3.390;2024-01-06T04:20:42;8.20;;;1.92;;
23260;SDS011;11799;47.740;-3.390;2024-01-06T04:23:08;5.00;;;1.58;;
23260;SDS011;11799;47.740;-3.390;2024-01-06T04:25:33;12.80;;;1.85;;
23260;SDS011;11799;47.740;-3.390;2024-01-06T04:27:59;9.20;;;1.70;;
23260;SDS011;11799;47.740;-3.390;2024-01-06T04:30:24;9.15;;;1.90;;
23260;SDS011;11799;47.740;-3.390;2024-01-06T04:32:51;7.72;;;1.73;;
23260;SDS011;11799;47.740;-3.390;2024-01-06T04:35:16;3.58;;;1.58;;
23260;SDS011;11799;47.740;-3.390;2024-01-06T04:37:42;9.05;;;1.70;;
23260;SDS011;11799;47.740;-3.390;2024-01-06T04:40:08;5.13;;;1.63;;
23260;SDS011;11799;47.740;-3.390;2024-01-06T04:42:34;7.93;;;2.10;;
23260;SDS011;11799;47.740;-3.390;2024-01-06T04:44:59;10.57;;;1.73;;
23260;SDS011;11799;47.740;-3.390;2024-01-06T04:47:25;5.35;;;2.00;;
23260;SDS011;11799;47.740;-3.390;2024-01-06T04:49:51;13.35;;;2.20;;
23260;SDS011;11799;47.740;-3.390;2024-01-06T04:52:17;7.57;;;1.90;;
23260;SDS011;11799;47.740;-3.390;2024-01-06T04:54:42;7.25;;;2.10;;
23260;SDS011;11799;47.740;-3.390;2024-01-06T04:57:08;9.85;;;1.83;;
23260;SDS011;11799;47.740;-3.390;2024-01-06T04:59:33;7.07;;;1.67;;
23260;SDS011;11799;47.740;-3.390;2024-01-06T05:01:59;4.72;;;1.95;;
23260;SDS011;11799;47.740;-3.390;2024-01-06T05:04:25;12.32;;;4.68;;
23260;SDS011;11799;47.740;-3.390;2024-01-06T05:06:53;6.25;;;2.10;;
23260;SDS011;11799;47.740;-3.390;2024-01-06T05:09:20;6.30;;;2.00;;
23260;SDS011;11799;47.740;-3.390;2024-01-06T05:11:45;9.35;;;1.90;;
23260;SDS011;11799;47.740;-3.390;2024-01-06T05:14:11;8.48;;;2.13;;
23260;SDS011;11799;47.740;-3.390;2024-01-06T05:16:37;7.22;;;1.80;;
23260;SDS011;11799;47.740;-3.390;2024-01-06T05:19:02;7.13;;;2.00;;
23260;SDS011;11799;47.740;-3.390;2024-01-06T05:21:28;6.65;;;1.70;;
23260;SDS011;11799;47.740;-3.390;2024-01-06T05:23:54;11.70;;;2.08;;
23260;SDS011;11799;47.740;-3.390;2024-01-06T05:26:20;11.10;;;1.80;;
23260;SDS011;11799;47.740;-3.390;2024-01-06T05:28:45;9.10;;;1.80;;
23260;SDS011;11799;47.740;-3.390;2024-01-06T05:31:11;5.50;;;1.83;;
23260;SDS011;11799;47.740;-3.390;2024-01-06T05:33:36;10.20;;;1.77;;
23260;SDS011;11799;47.740;-3.390;2024-01-06T05:36:02;13.15;;;1.90;;
23260;SDS011;11799;47.740;-3.390;2024-01-06T05:38:28;6.68;;;1.52;;
23260;SDS011;11799;47.740;-3.390;2024-01-06T05:40:53;10.75;;;1.73;;
23260;SDS011;11799;47.740;-3.390;2024-01-06T05:43:19;6.80;;;1.50;;
23260;SDS011;11799;47.740;-3.390;2024-01-06T05:45:44;14.23;;;2.13;;
23260;SDS011;11799;47.740;-3.390;2024-01-06T05:48:11;7.15;;;2.10;;
23260;SDS011;11799;47.740;-3.390;2024-01-06T05:50:39;13.18;;;2.20;;
23260;SDS011;11799;47.740;-3.390;2024-01-06T05:53:06;7.10;;;2.17;;
23260;SDS011;11799;47.740;-3.390;2024-01-06T05:55:32;11.95;;;1.85;;
23260;SDS011;11799;47.740;-3.390;2024-01-06T05:57:57;13.70;;;2.25;;
23260;SDS011;11799;47.740;-3.390;2024-01-06T06:00:23;10.18;;;2.42;;
23260;SDS011;11799;47.740;-3.390;2024-01-06T06:02:48;14.30;;;2.55;;
23260;SDS011;11799;47.740;-3.390;2024-01-06T06:05:14;7.68;;;2.15;;
23260;SDS011;11799;47.740;-3.390;2024-01-06T06:07:40;11.98;;;2.25;;
23260;SDS011;11799;47.740;-3.390;2024-01-06T06:10:08;6.38;;;1.75;;
23260;SDS011;11799;47.740;-3.390;2024-01-06T06:12:35;9.63;;;2.10;;
23260;SDS011;11799;47.740;-3.390;2024-01-06T06:15:01;9.35;;;1.80;;
23260;SDS011;11799;47.740;-3.390;2024-01-06T06:17:32;13.43;;;1.98;;
23260;SDS011;11799;47.740;-3.390;2024-01-06T06:19:58;8.73;;;1.95;;
23260;SDS011;11799;47.740;-3.390;2024-01-06T06:22:24;9.95;;;1.85;;
23260;SDS011;11799;47.740;-3.390;2024-01-06T06:24:55;7.35;;;1.77;;
23260;SDS011;11799;47.740;-3.390;2024-01-06T06:27:24;11.60;;;2.05;;
23260;SDS011;11799;47.740;-3.390;2024-01-06T06:29:50;10.00;;;3.05;;
23260;SDS011;11799;47.740;-3.390;2024-01-06T06:32:15;12.95;;;2.10;;
23260;SDS011;11799;47.740;-3.390;2024-01-06T06:34:42;8.38;;;2.13;;
23260;SDS011;11799;47.740;-3.390;2024-01-06T06:37:07;7.65;;;1.90;;
23260;SDS011;11799;47.740;-3.390;2024-01-06T06:39:33;17.83;;;2.33;;
23260;SDS011;11799;47.740;-3.390;2024-01-06T06:42:00;15.68;;;2.03;;
23260;SDS011;11799;47.740;-3.390;2024-01-06T06:44:26;15.23;;;2.10;;
23260;SDS011;11799;47.740;-3.390;2024-01-06T06:46:52;14.65;;;2.60;;
23260;SDS011;11799;47.740;-3.390;2024-01-06T06:49:18;16.73;;;2.38;;
23260;SDS011;11799;47.740;-3.390;2024-01-06T06:51:43;8.70;;;2.13;;
23260;SDS011;11799;47.740;-3.390;2024-01-06T06:54:16;10.60;;;2.10;;
23260;SDS011;11799;47.740;-3.390;2024-01-06T06:56:42;10.23;;;1.60;;
23260;SDS011;11799;47.740;-3.390;2024-01-06T06:59:08;10.13;;;1.98;;
23260;SDS011;11799;47.740;-3.390;2024-01-06T07:01:34;12.90;;;2.33;;
23260;SDS011;11799;47.740;-3.390;2024-01-06T07:04:00;11.32;;;1.92;;
23260;SDS011;11799;47.740;-3.390;2024-01-06T07:06:27;15.15;;;2.30;;
23260;SDS011;11799;47.740;-3.390;2024-01-06T07:08:54;11.82;;;2.63;;
23260;SDS011;11799;47.740;-3.390;2024-01-06T07:11:20;7.65;;;2.30;;
23260;SDS011;11799;47.740;-3.390;2024-01-06T07:13:46;10.88;;;1.95;;
23260;SDS011;11799;47.740;-3.390;2024-01-06T07:16:11;7.07;;;1.80;;
23260;SDS011;11799;47.740;-3.390;2024-01-06T07:18:37;10.73;;;2.10;;
23260;SDS011;11799;47.740;-3.390;2024-01-06T07:21:06;9.10;;;1.80;;
23260;SDS011;11799;47.740;-3.390;2024-01-06T07:23:31;7.88;;;1.83;;
23260;SDS011;11799;47.740;-3.390;2024-01-06T07:25:57;14.25;;;2.17;;
23260;SDS011;11799;47.740;-3.390;2024-01-06T07:28:23;5.03;;;1.85;;
23260;SDS011;11799;47.740;-3.390;2024-01-06T07:30:49;12.90;;;1.98;;
23260;SDS011;11799;47.740;-3.390;2024-01-06T07:33:14;8.23;;;1.98;;
23260;SDS011;11799;47.740;-3.390;2024-01-06T07:35:40;12.93;;;2.10;;
23260;SDS011;11799;47.740;-3.390;2024-01-06T07:38:08;11.38;;;1.83;;
23260;SDS011;11799;47.740;-3.390;2024-01-06T07:40:38;9.98;;;1.95;;
23260;SDS011;11799;47.740;-3.390;2024-01-06T07:43:04;13.60;;;2.45;;
23260;SDS011;11799;47.740;-3.390;2024-01-06T07:45:30;6.80;;;2.45;;
23260;SDS011;11799;47.740;-3.390;2024-01-06T07:47:57;6.82;;;2.38;;
23260;SDS011;11799;47.740;-3.390;2024-01-06T07:50:23;7.55;;;2.33;;
23260;SDS011;11799;47.740;-3.390;2024-01-06T07:52:48;10.52;;;2.58;;
23260;SDS011;11799;47.740;-3.390;2024-01-06T07:55:14;9.07;;;2.50;;
23260;SDS011;11799;47.740;-3.390;2024-01-06T07:57:39;9.68;;;2.65;;
23260;SDS011;11799;47.740;-3.390;2024-01-06T08:00:05;9.20;;;2.00;;
23260;SDS011;11799;47.740;-3.390;2024-01-06T08:02:37;5.00;;;1.77;;
23260;SDS011;11799;47.740;-3.390;2024-01-06T08:05:03;7.63;;;2.30;;
23260;SDS011;11799;47.740;-3.390;2024-01-06T08:07:28;7.78;;;2.50;;
23260;SDS011;11799;47.740;-3.390;2024-01-06T08:09:54;8.00;;;2.38;;
23260;SDS011;11799;47.740;-3.390;2024-01-06T08:12:19;10.05;;;2.33;;
23260;SDS011;11799;47.740;-3.390;2024-01-06T08:14:45;8.55;;;2.80;;
23260;SDS011;11799;47.740;-3.390;2024-01-06T08:17:10;9.13;;;2.45;;
23260;SDS011;11799;47.740;-3.390;2024-01-06T08:19:36;13.50;;;2.53;;
23260;SDS011;11799;47.740;-3.390;2024-01-06T08:22:01;5.88;;;2.47;;
23260;SDS011;11799;47.740;-3.390;2024-01-06T08:24:27;7.50;;;2.13;;
23260;SDS011;11799;47.740;-3.390;2024-01-06T08:26:52;11.32;;;2.42;;
23260;SDS011;11799;47.740;-3.390;2024-01-06T08:29:18;7.53;;;2.38;;
23260;SDS011;11799;47.740;-3.390;2024-01-06T08:31:45;11.73;;;2.60;;
23260;SDS011;11799;47.740;-3.390;2024-01-06T08:34:10;9.45;;;2.58;;
23260;SDS011;11799;47.740;-3.390;2024-01-06T08:36:36;9.13;;;2.90;;
23260;SDS011;11799;47.740;-3.390;2024-01-06T08:39:02;7.80;;;2.80;;
23260;SDS011;11799;47.740;-3.390;2024-01-06T08:41:28;8.60;;;2.55;;
23260;SDS011;11799;47.740;-3.390;2024-01-06T08:43:53;12.43;;;2.92;;
23260;SDS011;11799;47.740;-3.390;2024-01-06T08:46:19;14.57;;;2.90;;
23260;SDS011;11799;47.740;-3.390;2024-01-06T08:48:44;8.00;;;2.03;;
23260;SDS011;11799;47.740;-3.390;2024-01-06T08:51:10;7.15;;;1.70;;
23260;SDS011;11799;47.740;-3.390;2024-01-06T08:53:35;8.75;;;2.10;;
23260;SDS011;11799;47.740;-3.390;2024-01-06T08:56:01;7.20;;;1.90;;
23260;SDS011;11799;47.740;-3.390;2024-01-06T08:58:26;8.18;;;1.80;;
23260;SDS011;11799;47.740;-3.390;2024-01-06T09:00:52;6.88;;;2.10;;
23260;SDS011;11799;47.740;-3.390;2024-01-06T09:03:18;8.73;;;2.20;;
23260;SDS011;11799;47.740;-3.390;2024-01-06T09:05:50;7.68;;;2.15;;
23260;SDS011;11799;47.740;-3.390;2024-01-06T09:08:17;8.85;;;2.03;;
23260;SDS011;11799;47.740;-3.390;2024-01-06T09:10:43;13.35;;;3.17;;
23260;SDS011;11799;47.740;-3.390;2024-01-06T09:13:09;6.25;;;3.03;;
23260;SDS011;11799;47.740;-3.390;2024-01-06T09:15:34;7.97;;;3.17;;
23260;SDS011;11799;47.740;-3.390;2024-01-06T09:18:00;7.38;;;2.28;;
23260;SDS011;11799;47.740;-3.390;2024-01-06T09:20:26;9.25;;;1.92;;
23260;SDS011;11799;47.740;-3.390;2024-01-06T09:22:52;8.75;;;2.22;;
23260;SDS011;11799;47.740;-3.390;2024-01-06T09:25:18;6.65;;;1.90;;
23260;SDS011;11799;47.740;-3.390;2024-01-06T09:27:44;6.55;;;1.83;;
23260;SDS011;11799;47.740;-3.390;2024-01-06T09:30:09;6.43;;;2.50;;
23260;SDS011;11799;47.740;-3.390;2024-01-06T09:32:36;5.68;;;2.05;;
23260;SDS011;11799;47.740;-3.390;2024-01-06T09:35:02;5.95;;;2.22;;
23260;SDS011;11799;47.740;-3.390;2024-01-06T09:37:28;8.27;;;2.30;;
23260;SDS011;11799;47.740;-3.390;2024-01-06T09:39:54;5.57;;;2.10;;
23260;SDS011;11799;47.740;-3.390;2024-01-06T09:42:20;6.50;;;1.73;;
23260;SDS011;11799;47.740;-3.390;2024-01-06T09:44:46;10.68;;;2.10;;
23260;SDS011;11799;47.740;-3.390;2024-01-06T09:47:12;6.72;;;1.77;;
23260;SDS011;11799;47.740;-3.390;2024-01-06T09:49:38;4.90;;;2.10;;
23260;SDS011;11799;47.740;-3.390;2024-01-06T09:52:07;7.25;;;1.65;;
23260;SDS011;11799;47.740;-3.390;2024-01-06T09:54:45;7.50;;;1.80;;
23260;SDS011;11799;47.740;-3.390;2024-01-06T09:57:15;5.82;;;1.70;;
23260;SDS011;11799;47.740;-3.390;2024-01-06T09:59:43;6.97;;;2.00;;
23260;SDS011;11799;47.740;-3.390;2024-01-06T10:02:10;4.65;;;1.75;;
23260;SDS011;11799;47.740;-3.390;2024-01-06T10:04:39;9.48;;;2.17;;
23260;SDS011;11799;47.740;-3.390;2024-01-06T10:07:05;4.15;;;1.90;;
23260;SDS011;11799;47.740;-3.390;2024-01-06T10:09:31;6.50;;;1.90;;
23260;SDS011;11799;47.740;-3.390;2024-01-06T10:11:57;9.13;;;2.08;;
23260;SDS011;11799;47.740;-3.390;2024-01-06T10:14:24;9.02;;;2.38;;
23260;SDS011;11799;47.740;-3.390;2024-01-06T10:16:53;6.40;;;2.50;;
23260;SDS011;11799;47.740;-3.390;2024-01-06T10:19:19;6.53;;;2.42;;
23260;SDS011;11799;47.740;-3.390;2024-01-06T10:21:44;11.73;;;2.63;;
23260;SDS011;11799;47.740;-3.390;2024-01-06T10:24:10;10.50;;;1.90;;
23260;SDS011;11799;47.740;-3.390;2024-01-06T10:26:36;7.30;;;2.45;;
23260;SDS011;11799;47.740;-3.390;2024-01-06T10:29:02;5.82;;;2.13;;
23260;SDS011;11799;47.740;-3.390;2024-01-06T10:31:29;11.43;;;2.70;;
23260;SDS011;11799;47.740;-3.390;2024-01-06T10:33:54;9.98;;;2.47;;
23260;SDS011;11799;47.740;-3.390;2024-01-06T10:36:21;10.10;;;2.42;;
23260;SDS011;11799;47.740;-3.390;2024-01-06T10:38:52;8.60;;;2.42;;
23260;SDS011;11799;47.740;-3.390;2024-01-06T10:41:17;7.05;;;2.47;;
23260;SDS011;11799;47.740;-3.390;2024-01-06T10:43:45;10.18;;;2.60;;
23260;SDS011;11799;47.740;-3.390;2024-01-06T10:46:12;11.95;;;3.25;;
23260;SDS011;11799;47.740;-3.390;2024-01-06T10:48:40;8.43;;;2.58;;
23260;SDS011;11799;47.740;-3.390;2024-01-06T10:51:10;11.15;;;2.75;;
23260;SDS011;11799;47.740;-3.390;2024-01-06T10:53:36;12.52;;;3.03;;
23260;SDS011;11799;47.740;-3.390;2024-01-06T10:56:04;10.23;;;2.80;;
23260;SDS011;11799;47.740;-3.390;2024-01-06T10:58:31;11.23;;;2.67;;
23260;SDS011;11799;47.740;-3.390;2024-01-06T11:00:58;7.15;;;2.70;;
23260;SDS011;11799;47.740;-3.390;2024-01-06T11:03:25;7.90;;;2.65;;
23260;SDS011;11799;47.740;-3.390;2024-01-06T11:05:53;11.45;;;3.15;;
23260;SDS011;11799;47.740;-3.390;2024-01-06T11:08:19;7.68;;;2.80;;
23260;SDS011;11799;47.740;-3.390;2024-01-06T11:10:46;8.43;;;3.22;;
23260;SDS011;11799;47.740;-3.390;2024-01-06T11:13:14;14.95;;;3.17;;
23260;SDS011;11799;47.740;-3.390;2024-01-06T11:15:49;9.80;;;3.25;;
23260;SDS011;11799;47.740;-3.390;2024-01-06T11:23:44;7.90;;;3.10;;
23260;SDS011;11799;47.740;-3.390;2024-01-06T11:26:10;10.15;;;3.50;;
23260;SDS011;11799;47.740;-3.390;2024-01-06T11:28:48;14.38;;;3.88;;
23260;SDS011;11799;47.740;-3.390;2024-01-06T11:31:16;12.10;;;4.20;;
23260;SDS011;11799;47.740;-3.390;2024-01-06T11:33:44;12.02;;;3.08;;
23260;SDS011;11799;47.740;-3.390;2024-01-06T11:36:14;7.22;;;2.40;;
23260;SDS011;11799;47.740;-3.390;2024-01-06T11:38:40;6.60;;;2.03;;
23260;SDS011;11799;47.740;-3.390;2024-01-06T11:41:06;9.48;;;1.65;;
23260;SDS011;11799;47.740;-3.390;2024-01-06T11:43:34;7.78;;;1.40;;
23260;SDS011;11799;47.740;-3.390;2024-01-06T11:46:01;3.13;;;1.50;;
23260;SDS011;11799;47.740;-3.390;2024-01-06T11:48:29;8.40;;;2.15;;
23260;SDS011;11799;47.740;-3.390;2024-01-06T11:50:54;7.15;;;1.40;;
23260;SDS011;11799;47.740;-3.390;2024-01-06T11:53:21;10.10;;;2.10;;
23260;SDS011;11799;47.740;-3.390;2024-01-06T11:55:48;3.47;;;1.60;;
23260;SDS011;11799;47.740;-3.390;2024-01-06T11:58:16;5.50;;;1.80;;
23260;SDS011;11799;47.740;-3.390;2024-01-06T12:00:42;5.57;;;1.98;;
23260;SDS011;11799;47.740;-3.390;2024-01-06T12:03:07;6.25;;;2.10;;
23260;SDS011;11799;47.740;-3.390;2024-01-06T12:05:33;3.40;;;1.85;;
23260;SDS011;11799;47.740;-3.390;2024-01-06T12:08:00;13.75;;;2.13;;
23260;SDS011;11799;47.740;-3.390;2024-01-06T12:10:27;6.70;;;1.77;;
23260;SDS011;11799;47.740;-3.390;2024-01-06T12:12:54;8.63;;;2.95;;
23260;SDS011;11799;47.740;-3.390;2024-01-06T12:15:31;5.97;;;2.22;;
23260;SDS011;11799;47.740;-3.390;2024-01-06T12:17:57;11.23;;;2.65;;
23260;SDS011;11799;47.740;-3.390;2024-01-06T12:20:24;7.60;;;2.92;;
23260;SDS011;11799;47.740;-3.390;2024-01-06T12:22:51;7.50;;;2.30;;
23260;SDS011;11799;47.740;-3.390;2024-01-06T12:25:17;9.10;;;2.63;;
23260;SDS011;11799;47.740;-3.390;2024-01-06T12:27:43;12.23;;;2.40;;
23260;SDS011;11799;47.740;-3.390;2024-01-06T12:30:16;8.45;;;2.22;;
23260;SDS011;11799;47.740;-3.390;2024-01-06T12:32:48;8.65;;;2.08;;
23260;SDS011;11799;47.740;-3.390;2024-01-06T12:35:15;10.23;;;2.40;;
23260;SDS011;11799;47.740;-3.390;2024-01-06T12:37:41;5.10;;;2.00;;
23260;SDS011;11799;47.740;-3.390;2024-01-06T12:40:14;6.60;;;2.10;;
23260;SDS011;11799;47.740;-3.390;2024-01-06T12:42:42;6.72;;;2.10;;
23260;SDS011;11799;47.740;-3.390;2024-01-06T12:45:08;6.90;;;1.80;;
23260;SDS011;11799;47.740;-3.390;2024-01-06T12:47:35;5.00;;;1.70;;
23260;SDS011;11799;47.740;-3.390;2024-01-06T12:50:01;4.88;;;1.60;;
23260;SDS011;11799;47.740;-3.390;2024-01-06T12:52:27;4.65;;;1.60;;
23260;SDS011;11799;47.740;-3.390;2024-01-06T12:54:52;6.93;;;1.70;;
23260;SDS011;11799;47.740;-3.390;2024-01-06T12:57:18;4.93;;;1.98;;
23260;SDS011;11799;47.740;-3.390;2024-01-06T12:59:43;9.38;;;2.40;;
23260;SDS011;11799;47.740;-3.390;2024-01-06T13:02:09;6.28;;;2.03;;
23260;SDS011;11799;47.740;-3.390;2024-01-06T13:04:34;9.70;;;1.88;;
23260;SDS011;11799;47.740;-3.390;2024-01-06T13:07:00;9.75;;;2.15;;
23260;SDS011;11799;47.740;-3.390;2024-01-06T13:09:26;8.13;;;1.88;;
23260;SDS011;11799;47.740;-3.390;2024-01-06T13:11:53;5.95;;;2.00;;
23260;SDS011;11799;47.740;-3.390;2024-01-06T13:14:20;7.22;;;1.80;;
23260;SDS011;11799;47.740;-3.390;2024-01-06T13:16:46;5.30;;;2.20;;
23260;SDS011;11799;47.740;-3.390;2024-01-06T13:19:12;9.32;;;2.00;;
23260;SDS011;11799;47.740;-3.390;2024-01-06T13:21:37;9.15;;;2.20;;
23260;SDS011;11799;47.740;-3.390;2024-01-06T13:24:05;6.88;;;2.67;;
23260;SDS011;11799;47.740;-3.390;2024-01-06T13:26:32;10.25;;;2.40;;
23260;SDS011;11799;47.740;-3.390;2024-01-06T13:28:57;5.97;;;2.17;;
23260;SDS011;11799;47.740;-3.390;2024-01-06T13:31:24;5.57;;;2.08;;
23260;SDS011;11799;47.740;-3.390;2024-01-06T13:33:49;10.32;;;2.60;;
23260;SDS011;11799;47.740;-3.390;2024-01-06T13:36:17;5.28;;;2.40;;
23260;SDS011;11799;47.740;-3.390;2024-01-06T13:38:45;14.73;;;2.50;;
23260;SDS011;11799;47.740;-3.390;2024-01-06T13:41:10;8.73;;;2.20;;
23260;SDS011;11799;47.740;-3.390;2024-01-06T13:43:36;6.32;;;2.17;;
23260;SDS011;11799;47.740;-3.390;2024-01-06T13:46:01;8.27;;;2.03;;
23260;SDS011;11799;47.740;-3.390;2024-01-06T13:48:28;11.13;;;2.65;;
23260;SDS011;11799;47.740;-3.390;2024-01-06T13:50:53;5.40;;;2.40;;
23260;SDS011;11799;47.740;-3.390;2024-01-06T13:53:19;12.00;;;2.40;;
23260;SDS011;11799;47.740;-3.390;2024-01-06T13:55:45;10.05;;;2.40;;
23260;SDS011;11799;47.740;-3.390;2024-01-06T13:58:10;15.38;;;2.50;;
23260;SDS011;11799;47.740;-3.390;2024-01-06T14:00:36;5.53;;;2.40;;
23260;SDS011;11799;47.740;-3.390;2024-01-06T14:03:02;10.25;;;2.50;;
23260;SDS011;11799;47.740;-3.390;2024-01-06T14:05:29;9.80;;;2.72;;
23260;SDS011;11799;47.740;-3.390;2024-01-06T14:07:55;7.55;;;2.28;;
23260;SDS011;11799;47.740;-3.390;2024-01-06T14:10:20;9.02;;;2.80;;
23260;SDS011;11799;47.740;-3.390;2024-01-06T14:12:46;10.48;;;2.60;;
23260;SDS011;11799;47.740;-3.390;2024-01-06T14:15:11;8.68;;;2.63;;
23260;SDS011;11799;47.740;-3.390;2024-01-06T14:17:37;4.70;;;1.98;;
23260;SDS011;11799;47.740;-3.390;2024-01-06T14:20:04;7.85;;;2.17;;
23260;SDS011;11799;47.740;-3.390;2024-01-06T14:22:30;10.93;;;2.25;;
23260;SDS011;11799;47.740;-3.390;2024-01-06T14:24:56;5.50;;;1.80;;
23260;SDS011;11799;47.740;-3.390;2024-01-06T14:27:21;9.15;;;2.33;;
23260;SDS011;11799;47.740;-3.390;2024-01-06T14:29:48;12.77;;;2.20;;